createdAt,value
2023-02-21T00:01:24.953Z,54.80
2023-02-21T00:03:53.087Z,54.85
2023-02-21T00:06:21.541Z,54.53
2023-02-21T00:08:49.979Z,54.60
2023-02-21T00:11:18.025Z,54.45
2023-02-21T00:13:46.149Z,54.42
2023-02-21T00:16:18.296Z,54.45
2023-02-21T00:18:46.871Z,54.58
2023-02-21T00:21:15.183Z,54.47
2023-02-21T00:23:43.404Z,54.61
2023-02-21T00:26:11.940Z,54.57
2023-02-21T00:28:40.206Z,54.58
2023-02-21T00:31:08.353Z,54.39
2023-02-21T00:33:37.140Z,54.46
2023-02-21T00:36:05.265Z,54.40
2023-02-21T00:38:33.237Z,54.31
2023-02-21T00:41:01.648Z,54.03
2023-02-21T00:43:30.486Z,54.20
2023-02-21T00:45:58.488Z,54.25
2023-02-21T00:48:27.407Z,54.13
2023-02-21T00:50:55.475Z,54.18
2023-02-21T00:53:26.521Z,53.80
2023-02-21T00:55:54.558Z,53.93
2023-02-21T00:58:23.371Z,54.06
2023-02-21T01:00:51.402Z,53.96
2023-02-21T01:03:19.775Z,53.68
2023-02-21T01:05:48.311Z,53.87
2023-02-21T01:08:16.746Z,53.87
2023-02-21T01:10:44.954Z,53.64
2023-02-21T01:13:13.234Z,53.46
2023-02-21T01:15:41.302Z,53.29
2023-02-21T01:18:09.606Z,53.23
2023-02-21T01:20:37.688Z,53.33
2023-02-21T01:23:05.870Z,53.17
2023-02-21T01:25:33.992Z,52.91
2023-02-21T01:28:02.194Z,52.76
2023-02-21T01:30:30.343Z,52.93
2023-02-21T01:32:58.840Z,52.72
2023-02-21T01:35:27.015Z,52.49
2023-02-21T01:37:55.054Z,52.63
2023-02-21T01:40:23.603Z,52.78
2023-02-21T01:42:51.741Z,52.68
2023-02-21T01:45:22.976Z,52.65
2023-02-21T01:47:51.025Z,52.66
2023-02-21T01:50:25.218Z,52.73
2023-02-21T01:52:53.240Z,52.80
2023-02-21T01:55:21.335Z,52.34
2023-02-21T01:57:50.495Z,52.33
2023-02-21T02:00:18.826Z,51.93
2023-02-21T02:02:58.612Z,52.23
2023-02-21T02:05:28.149Z,51.91
2023-02-21T02:07:57.391Z,51.73
2023-02-21T02:10:26.168Z,51.68
2023-02-21T02:12:57.445Z,51.40
2023-02-21T02:15:41.646Z,51.20
2023-02-21T02:18:13.133Z,50.91
2023-02-21T02:20:50.735Z,50.81
2023-02-21T02:23:37.906Z,50.65
2023-02-21T02:26:24.686Z,51.11
2023-02-21T02:28:58.659Z,50.87
2023-02-21T02:31:52.482Z,51.17
2023-02-21T02:34:40.828Z,50.85
2023-02-21T02:37:21.617Z,50.64
2023-02-21T02:39:56.342Z,50.51
2023-02-21T02:42:31.946Z,50.44
2023-02-21T02:45:03.628Z,50.02
2023-02-21T02:47:35.279Z,50.02
2023-02-21T02:50:05.814Z,50.22
2023-02-21T02:52:35.396Z,50.28
2023-02-21T02:55:23.788Z,50.46
2023-02-21T02:57:52.531Z,50.26
2023-02-21T03:00:21.564Z,49.86
2023-02-21T03:03:14.046Z,49.97
2023-02-21T03:06:01.479Z,50.36
2023-02-21T03:08:44.576Z,50.19
2023-02-21T03:11:18.651Z,50.21
2023-02-21T03:13:54.390Z,50.29
2023-02-21T03:16:25.517Z,50.38
2023-02-21T03:19:33.252Z,50.53
2023-02-21T03:22:04.802Z,50.78
2023-02-21T03:24:35.345Z,50.58
2023-02-21T03:27:06.134Z,50.37
2023-02-21T03:29:36.310Z,50.62
2023-02-21T03:32:13.834Z,50.49
2023-02-21T03:34:43.424Z,50.64
2023-02-21T03:37:20.060Z,50.33
2023-02-21T03:39:48.032Z,50.64
2023-02-21T03:42:16.623Z,50.71
2023-02-21T03:44:45.000Z,50.45
2023-02-21T03:47:13.002Z,50.28
2023-02-21T03:49:41.279Z,50.16
2023-02-21T03:52:11.123Z,50.26
2023-02-21T03:54:40.039Z,49.93
2023-02-21T03:57:09.651Z,49.76
2023-02-21T03:59:37.776Z,49.74
2023-02-21T04:02:05.913Z,49.61
2023-02-21T04:04:34.351Z,49.44
2023-02-21T04:07:02.589Z,49.11
2023-02-21T04:09:30.753Z,49.14
2023-02-21T04:11:59.245Z,49.01
2023-02-21T04:14:27.299Z,49.21
2023-02-21T04:16:55.731Z,49.25
2023-02-21T04:19:23.778Z,49.00
2023-02-21T04:21:53.191Z,48.86
2023-02-21T04:24:21.355Z,48.90
2023-02-21T04:26:49.448Z,48.82
2023-02-21T04:29:17.505Z,48.95
2023-02-21T04:31:46.102Z,48.97
2023-02-21T04:34:14.275Z,49.26
2023-02-21T04:36:42.338Z,49.00
2023-02-21T04:39:11.011Z,48.74
2023-02-21T04:41:39.528Z,49.25
2023-02-21T04:44:07.559Z,48.98
2023-02-21T04:46:35.867Z,48.79
2023-02-21T04:49:04.590Z,48.82
2023-02-21T04:51:32.562Z,48.80
2023-02-21T04:54:00.862Z,48.73
2023-02-21T04:56:28.960Z,48.51
2023-02-21T04:58:57.282Z,48.74
2023-02-21T05:01:27.974Z,48.47
2023-02-21T05:03:57.157Z,48.27
2023-02-21T05:06:27.176Z,48.53
2023-02-21T05:08:55.240Z,48.35
2023-02-21T05:11:24.381Z,48.40
2023-02-21T05:13:53.473Z,48.18
2023-02-21T05:16:21.661Z,48.10
2023-02-21T05:18:49.902Z,48.12
2023-02-21T05:21:19.053Z,48.06
2023-02-21T05:23:47.195Z,48.40
2023-02-21T05:26:15.275Z,48.24
2023-02-21T05:28:44.587Z,48.05
2023-02-21T05:31:13.881Z,48.37
2023-02-21T05:33:42.543Z,48.46
2023-02-21T05:36:11.246Z,48.63
2023-02-21T05:38:50.028Z,48.68
2023-02-21T05:41:18.929Z,48.94
2023-02-21T05:43:47.689Z,49.03
2023-02-21T05:46:18.002Z,48.87
2023-02-21T05:48:46.030Z,49.16
2023-02-21T05:51:14.770Z,49.11
2023-02-21T05:53:46.473Z,49.23
2023-02-21T05:56:15.152Z,49.17
2023-02-21T05:58:44.252Z,49.10
2023-02-21T06:01:12.624Z,49.13
2023-02-21T06:03:41.242Z,49.29
2023-02-21T06:06:09.228Z,49.32
2023-02-21T06:08:44.156Z,49.41
2023-02-21T06:11:13.309Z,49.38
2023-02-21T06:13:42.244Z,49.24
2023-02-21T06:16:10.337Z,49.28
2023-02-21T06:18:38.410Z,49.23
2023-02-21T06:21:06.486Z,49.21
2023-02-21T06:23:34.470Z,49.32
2023-02-21T06:26:02.493Z,49.46
2023-02-21T06:28:31.118Z,49.51
2023-02-21T06:30:59.464Z,49.65
2023-02-21T06:33:28.158Z,49.63
2023-02-21T06:35:56.283Z,49.58
2023-02-21T06:38:25.231Z,49.58
2023-02-21T06:40:54.644Z,49.70
2023-02-21T06:43:23.140Z,49.69
2023-02-21T06:45:53.165Z,49.70
2023-02-21T06:48:21.370Z,49.68
2023-02-21T06:50:49.436Z,49.62
2023-02-21T06:53:17.541Z,49.66
2023-02-21T06:55:45.559Z,49.51
2023-02-21T06:58:13.653Z,49.50
2023-02-21T07:00:41.740Z,49.23
2023-02-21T07:03:09.841Z,49.49
2023-02-21T07:05:38.220Z,49.24
2023-02-21T07:08:06.923Z,49.17
2023-02-21T07:10:35.222Z,49.16
2023-02-21T07:13:03.449Z,48.90
2023-02-21T07:15:31.725Z,48.70
2023-02-21T07:17:59.736Z,48.65
2023-02-21T07:20:27.804Z,48.25
2023-02-21T07:22:56.453Z,47.98
2023-02-21T07:25:25.091Z,47.89
2023-02-21T07:27:53.277Z,46.99
2023-02-21T07:30:21.549Z,46.59
2023-02-21T07:32:50.988Z,46.18
2023-02-21T07:35:19.784Z,45.67
2023-02-21T07:37:48.017Z,45.40
2023-02-21T07:40:17.173Z,45.12
2023-02-21T07:42:45.238Z,44.48
2023-02-21T07:45:15.104Z,43.91
2023-02-21T07:47:43.289Z,43.37
2023-02-21T07:50:11.865Z,43.20
2023-02-21T07:52:39.952Z,42.80
2023-02-21T07:55:08.114Z,42.84
2023-02-21T07:57:36.279Z,42.71
2023-02-21T08:00:04.686Z,42.64
2023-02-21T08:02:32.874Z,42.68
2023-02-21T08:05:01.197Z,42.58
2023-02-21T08:07:29.803Z,42.32
2023-02-21T08:09:58.421Z,42.28
2023-02-21T08:12:27.433Z,42.79
2023-02-21T08:14:55.937Z,43.45
2023-02-21T08:17:23.926Z,44.13
2023-02-21T08:19:52.015Z,44.58
2023-02-21T08:22:20.208Z,45.42
2023-02-21T08:24:51.504Z,46.46
2023-02-21T08:27:19.652Z,47.30
2023-02-21T08:29:50.236Z,47.95
2023-02-21T08:32:19.763Z,48.75
2023-02-21T08:34:49.226Z,49.62
2023-02-21T08:37:17.567Z,49.95
2023-02-21T08:39:53.329Z,50.33
2023-02-21T08:42:21.955Z,50.70
2023-02-21T08:44:50.460Z,50.61
2023-02-21T08:47:18.887Z,50.95
2023-02-21T08:49:47.903Z,51.36
2023-02-21T08:52:17.085Z,51.80
2023-02-21T08:54:46.241Z,51.54
2023-02-21T08:57:14.369Z,50.82
2023-02-21T08:59:43.102Z,49.38
2023-02-21T09:02:15.908Z,48.76
2023-02-21T09:04:46.381Z,48.21
2023-02-21T09:07:15.286Z,48.07
2023-02-21T09:09:43.511Z,48.16
2023-02-21T09:12:13.497Z,48.08
2023-02-21T09:14:43.405Z,48.08
2023-02-21T09:17:14.118Z,48.25
2023-02-21T09:19:42.085Z,48.40
2023-02-21T09:22:11.362Z,47.76
2023-02-21T09:24:41.847Z,46.23
2023-02-21T09:27:10.249Z,44.76
2023-02-21T09:29:46.377Z,43.11
2023-02-21T09:32:15.252Z,41.88
2023-02-21T09:34:46.293Z,40.74
2023-02-21T09:37:15.448Z,39.16
2023-02-21T09:39:45.030Z,38.26
2023-02-21T09:42:16.544Z,38.03
2023-02-21T09:44:46.918Z,38.21
2023-02-21T09:47:22.370Z,38.11
2023-02-21T09:49:58.657Z,38.36
2023-02-21T09:52:35.519Z,38.81
2023-02-21T09:55:07.483Z,39.21
2023-02-21T09:57:36.713Z,39.85
2023-02-21T10:00:22.472Z,40.26
2023-02-21T10:03:11.353Z,40.79
2023-02-21T10:05:57.360Z,41.17
2023-02-21T10:08:25.479Z,41.80
2023-02-21T10:10:56.137Z,42.32
2023-02-21T10:13:36.782Z,42.53
2023-02-21T10:16:13.228Z,43.33
2023-02-21T10:18:45.498Z,44.28
2023-02-21T10:21:22.196Z,45.20
2023-02-21T10:23:52.221Z,46.00
2023-02-21T10:26:24.844Z,46.34
2023-02-21T10:28:56.469Z,47.04
2023-02-21T10:31:39.674Z,47.65
2023-02-21T10:34:15.731Z,48.06
2023-02-21T10:36:43.823Z,48.26
2023-02-21T10:39:21.061Z,48.61
2023-02-21T10:41:50.030Z,48.78
2023-02-21T10:44:21.805Z,48.59
2023-02-21T10:46:53.332Z,48.74
2023-02-21T10:49:25.834Z,48.72
2023-02-21T10:52:04.613Z,48.84
2023-02-21T10:54:35.230Z,49.47
2023-02-21T10:57:04.999Z,49.49
2023-02-21T10:59:35.419Z,49.57
2023-02-21T11:02:23.216Z,49.55
2023-02-21T11:04:55.208Z,49.61
2023-02-21T11:07:23.461Z,49.34
2023-02-21T11:09:52.783Z,49.46
2023-02-21T11:12:25.292Z,49.67
2023-02-21T11:14:56.315Z,49.45
2023-02-21T11:17:25.563Z,50.29
2023-02-21T11:19:57.870Z,50.89
2023-02-21T11:22:35.448Z,50.94
2023-02-21T11:25:19.623Z,51.10
2023-02-21T11:28:06.726Z,50.91
2023-02-21T11:30:36.486Z,51.05
2023-02-21T11:33:05.934Z,50.93
2023-02-21T11:35:36.108Z,50.83
2023-02-21T11:38:05.899Z,50.89
2023-02-21T11:40:51.584Z,51.20
2023-02-21T11:43:27.006Z,50.97
2023-02-21T11:46:10.072Z,50.60
2023-02-21T11:48:43.059Z,50.20
2023-02-21T11:51:19.000Z,49.01
2023-02-21T11:53:47.106Z,48.08
2023-02-21T11:56:20.990Z,47.42
2023-02-21T11:59:07.146Z,46.76
2023-02-21T12:01:46.057Z,45.78
2023-02-21T12:04:14.267Z,44.91
2023-02-21T12:06:50.298Z,44.28
2023-02-21T12:09:42.512Z,43.14
2023-02-21T12:12:16.708Z,41.90
2023-02-21T12:14:53.995Z,40.72
2023-02-21T12:17:46.661Z,38.53
2023-02-21T12:20:47.043Z,37.68
2023-02-21T12:23:21.838Z,37.08
2023-02-21T12:26:07.595Z,36.88
2023-02-21T12:28:44.573Z,37.15
2023-02-21T12:31:24.112Z,37.29
2023-02-21T12:34:14.791Z,36.89
2023-02-21T12:36:49.647Z,37.04
2023-02-21T12:39:37.039Z,37.19
2023-02-21T12:42:11.722Z,37.51
2023-02-21T12:44:42.835Z,37.70
2023-02-21T12:47:16.863Z,37.42
2023-02-21T12:49:44.983Z,37.14
2023-02-21T12:52:13.494Z,36.49
2023-02-21T12:54:44.893Z,36.90
2023-02-21T12:57:16.281Z,37.04
2023-02-21T13:00:04.189Z,37.03
2023-02-21T13:02:39.561Z,36.76
2023-02-21T13:05:11.364Z,36.68
2023-02-21T13:07:50.342Z,36.44
2023-02-21T13:10:21.110Z,36.27
2023-02-21T13:12:52.013Z,36.06
2023-02-21T13:15:24.317Z,36.19
2023-02-21T13:18:05.410Z,37.09
2023-02-21T13:20:46.747Z,37.26
2023-02-21T13:23:16.496Z,36.09
2023-02-21T13:25:44.520Z,36.33
2023-02-21T13:28:18.632Z,36.97
2023-02-21T13:30:50.734Z,37.28
2023-02-21T13:33:28.673Z,37.76
2023-02-21T13:35:58.628Z,38.18
2023-02-21T13:38:28.323Z,38.57
2023-02-21T13:41:05.550Z,38.92
2023-02-21T13:43:35.317Z,38.09
2023-02-21T13:46:22.683Z,38.54
2023-02-21T13:49:09.986Z,39.27
2023-02-21T13:51:48.670Z,39.60
2023-02-21T13:54:22.548Z,39.62
2023-02-21T13:56:51.616Z,39.12
2023-02-21T13:59:25.902Z,38.50
2023-02-21T14:02:15.207Z,39.04
2023-02-21T14:05:09.549Z,39.36
2023-02-21T14:07:40.352Z,39.78
2023-02-21T14:10:24.785Z,40.07
2023-02-21T14:12:58.419Z,40.54
2023-02-21T14:15:41.784Z,40.40
2023-02-21T14:18:19.097Z,40.43
2023-02-21T14:20:49.193Z,40.17
2023-02-21T14:23:19.723Z,40.29
2023-02-21T14:25:59.702Z,40.15
2023-02-21T14:28:46.948Z,40.13
2023-02-21T14:31:15.623Z,39.99
2023-02-21T14:33:44.065Z,40.36
2023-02-21T14:36:16.054Z,40.83
2023-02-21T14:38:45.109Z,40.67
2023-02-21T14:41:13.401Z,40.40
2023-02-21T14:43:58.582Z,39.83
2023-02-21T14:46:52.218Z,40.26
2023-02-21T14:49:20.845Z,40.34
2023-02-21T14:51:57.634Z,39.80
2023-02-21T14:54:45.450Z,40.06
2023-02-21T14:57:13.465Z,40.46
2023-02-21T15:00:00.780Z,40.72
2023-02-21T15:02:28.724Z,40.94
2023-02-21T15:05:12.058Z,40.92
2023-02-21T15:07:49.219Z,41.13
2023-02-21T15:10:21.758Z,41.33
2023-02-21T15:12:55.875Z,41.55
2023-02-21T15:15:34.442Z,41.69
2023-02-21T15:18:05.025Z,41.41
2023-02-21T15:20:34.370Z,41.36
2023-02-21T15:23:09.692Z,42.12
2023-02-21T15:25:38.085Z,42.96
2023-02-21T15:28:07.605Z,43.52
2023-02-21T15:30:38.047Z,43.85
2023-02-21T15:33:06.164Z,43.90
2023-02-21T15:35:43.792Z,44.10
2023-02-21T15:38:23.512Z,44.42
2023-02-21T15:40:54.529Z,44.80
2023-02-21T15:43:37.719Z,45.25
2023-02-21T15:46:09.053Z,45.74
2023-02-21T15:48:38.145Z,46.41
2023-02-21T15:51:08.891Z,46.86
2023-02-21T15:53:37.061Z,46.93
2023-02-21T15:56:22.928Z,47.00
2023-02-21T15:59:26.280Z,47.06
2023-02-21T16:02:07.487Z,46.95
2023-02-21T16:04:37.057Z,46.89
2023-02-21T16:07:06.898Z,47.23
2023-02-21T16:09:36.894Z,47.18
2023-02-21T16:12:10.944Z,47.58
2023-02-21T16:14:41.747Z,48.00
2023-02-21T16:17:13.119Z,48.33
2023-02-21T16:19:42.592Z,48.48
2023-02-21T16:22:29.625Z,48.91
2023-02-21T16:25:06.246Z,49.22
2023-02-21T16:27:34.335Z,49.43
2023-02-21T16:30:04.248Z,49.94
2023-02-21T16:32:33.302Z,50.41
2023-02-21T16:35:01.757Z,50.47
2023-02-21T16:37:30.357Z,50.62
2023-02-21T16:39:58.519Z,50.61
2023-02-21T16:42:26.527Z,50.78
2023-02-21T16:44:54.580Z,51.21
2023-02-21T16:47:23.801Z,51.38
2023-02-21T16:49:52.124Z,51.44
2023-02-21T16:52:20.271Z,51.54
2023-02-21T16:54:48.473Z,51.54
2023-02-21T16:57:16.652Z,51.71
2023-02-21T16:59:44.834Z,52.11
2023-02-21T17:02:13.835Z,52.30
2023-02-21T17:04:42.387Z,52.48
2023-02-21T17:07:10.916Z,52.36
2023-02-21T17:09:39.322Z,52.76
2023-02-21T17:12:08.490Z,52.80
2023-02-21T17:14:36.924Z,53.05
2023-02-21T17:17:07.590Z,53.21
2023-02-21T17:19:35.647Z,53.45
2023-02-21T17:22:04.243Z,53.57
2023-02-21T17:24:32.443Z,53.91
2023-02-21T17:27:01.569Z,53.95
2023-02-21T17:29:29.958Z,54.08
2023-02-21T17:31:58.075Z,54.21
2023-02-21T17:34:25.998Z,54.20
2023-02-21T17:36:54.512Z,54.51
2023-02-21T17:39:22.610Z,54.73
2023-02-21T17:41:51.566Z,55.43
2023-02-21T17:44:20.026Z,55.55
2023-02-21T17:46:49.192Z,55.78
2023-02-21T17:49:18.112Z,56.04
2023-02-21T17:51:46.454Z,56.19
2023-02-21T17:54:17.084Z,56.26
2023-02-21T17:56:46.091Z,56.90
2023-02-21T17:59:14.484Z,57.23
2023-02-21T18:01:43.085Z,57.73
2023-02-21T18:04:12.811Z,57.97
2023-02-21T18:06:41.715Z,57.90
2023-02-21T18:09:09.889Z,58.09
2023-02-21T18:11:37.883Z,58.39
2023-02-21T18:14:05.943Z,58.66
2023-02-21T18:16:34.223Z,58.44
2023-02-21T18:19:02.146Z,58.66
2023-02-21T18:21:30.173Z,58.55
2023-02-21T18:23:58.324Z,58.94
2023-02-21T18:26:26.401Z,59.40
2023-02-21T18:28:54.487Z,59.51
2023-02-21T18:31:23.332Z,59.84
2023-02-21T18:33:51.378Z,59.98
2023-02-21T18:36:20.147Z,60.07
2023-02-21T18:38:48.457Z,59.98
2023-02-21T18:41:18.190Z,60.11
2023-02-21T18:43:46.585Z,60.30
2023-02-21T18:46:16.958Z,60.55
2023-02-21T18:48:46.440Z,60.55
2023-02-21T18:51:16.133Z,60.56
2023-02-21T18:53:44.981Z,60.59
2023-02-21T18:56:14.366Z,60.62
2023-02-21T18:58:42.382Z,60.55
2023-02-21T19:01:13.770Z,60.59
2023-02-21T19:03:42.362Z,60.64
2023-02-21T19:06:12.291Z,60.65
2023-02-21T19:08:40.381Z,60.61
2023-02-21T19:11:08.853Z,60.73
2023-02-21T19:13:36.899Z,60.71
2023-02-21T19:16:05.816Z,60.79
2023-02-21T19:18:34.234Z,60.98
2023-02-21T19:21:02.746Z,60.97
2023-02-21T19:23:30.892Z,61.01
2023-02-21T19:25:58.882Z,61.02
2023-02-21T19:28:26.897Z,61.24
2023-02-21T19:30:56.413Z,61.34
2023-02-21T19:33:24.417Z,61.42
2023-02-21T19:35:52.508Z,61.37
2023-02-21T19:38:20.709Z,61.42
2023-02-21T19:40:48.851Z,61.40
2023-02-21T19:43:17.010Z,61.51
2023-02-21T19:45:45.150Z,61.59
2023-02-21T19:48:13.484Z,61.48
2023-02-21T19:50:41.551Z,61.49
2023-02-21T19:53:10.755Z,61.51
2023-02-21T19:55:38.744Z,61.35
2023-02-21T19:58:06.818Z,61.23
2023-02-21T20:00:35.342Z,61.34
2023-02-21T20:03:03.511Z,61.25
2023-02-21T20:05:31.637Z,61.24
2023-02-21T20:07:59.869Z,61.28
2023-02-21T20:10:28.007Z,61.33
2023-02-21T20:12:56.167Z,61.49
2023-02-21T20:15:24.926Z,61.43
2023-02-21T20:17:52.932Z,61.51
2023-02-21T20:20:21.826Z,61.72
2023-02-21T20:22:50.268Z,61.89
2023-02-21T20:25:18.519Z,62.12
2023-02-21T20:27:46.964Z,62.55
2023-02-21T20:30:16.136Z,62.79
2023-02-21T20:32:44.938Z,62.92
2023-02-21T20:35:13.191Z,63.03
2023-02-21T20:37:41.892Z,63.20
2023-02-21T20:40:10.473Z,63.32
2023-02-21T20:42:38.650Z,63.44
2023-02-21T20:45:07.371Z,63.53
2023-02-21T20:47:35.422Z,63.24
2023-02-21T20:50:03.882Z,63.27
2023-02-21T20:52:32.180Z,62.94
2023-02-21T20:55:00.472Z,62.90
2023-02-21T20:57:28.621Z,62.78
2023-02-21T20:59:56.946Z,62.67
2023-02-21T21:02:25.000Z,62.49
2023-02-21T21:04:53.316Z,62.46
2023-02-21T21:07:22.584Z,62.58
2023-02-21T21:09:51.106Z,62.56
2023-02-21T21:12:20.939Z,62.61
2023-02-21T21:14:50.668Z,62.43
2023-02-21T21:17:19.903Z,62.49
2023-02-21T21:19:49.288Z,62.36
2023-02-21T21:22:20.937Z,62.23
2023-02-21T21:24:50.817Z,62.22
2023-02-21T21:27:20.019Z,62.03
2023-02-21T21:29:48.966Z,61.93
2023-02-21T21:32:18.721Z,61.77
2023-02-21T21:34:49.985Z,61.72
2023-02-21T21:37:19.882Z,61.69
2023-02-21T21:39:49.460Z,61.72
2023-02-21T21:42:19.138Z,61.61
2023-02-21T21:44:48.940Z,61.49
2023-02-21T21:47:23.629Z,61.42
2023-02-21T21:49:52.454Z,61.27
2023-02-21T21:52:21.587Z,61.13
2023-02-21T21:54:50.032Z,61.07
2023-02-21T21:57:18.784Z,60.89
2023-02-21T21:59:49.397Z,60.97
2023-02-21T22:02:17.747Z,60.74
2023-02-21T22:04:46.712Z,60.68
2023-02-21T22:07:14.793Z,60.57
2023-02-21T22:09:42.829Z,60.49
2023-02-21T22:12:15.932Z,60.49
2023-02-21T22:14:44.949Z,60.38
2023-02-21T22:17:13.149Z,60.33
2023-02-21T22:19:41.440Z,60.30
2023-02-21T22:22:09.854Z,60.28
2023-02-21T22:24:39.424Z,60.29
2023-02-21T22:27:07.575Z,60.31
2023-02-21T22:29:35.567Z,60.26
2023-02-21T22:32:03.676Z,60.42
2023-02-21T22:34:32.199Z,60.29
2023-02-21T22:37:00.374Z,60.22
2023-02-21T22:39:28.376Z,60.16
2023-02-21T22:41:56.513Z,60.10
2023-02-21T22:44:25.532Z,59.95
2023-02-21T22:46:53.975Z,60.00
2023-02-21T22:49:22.127Z,60.02
2023-02-21T22:51:51.261Z,60.05
2023-02-21T22:54:19.275Z,59.94
2023-02-21T22:56:47.332Z,59.75
2023-02-21T22:59:15.449Z,59.83
2023-02-21T23:01:43.541Z,59.90
2023-02-21T23:04:12.513Z,59.91
2023-02-21T23:06:41.072Z,59.89
2023-02-21T23:09:10.225Z,59.83
2023-02-21T23:11:40.875Z,59.86
2023-02-21T23:14:09.444Z,59.90
2023-02-21T23:16:37.379Z,59.94
2023-02-21T23:19:06.794Z,60.01
2023-02-21T23:21:35.311Z,60.01
2023-02-21T23:24:03.456Z,60.04
2023-02-21T23:26:31.870Z,59.98
2023-02-21T23:29:00.093Z,59.87
2023-02-21T23:31:28.157Z,60.01
2023-02-21T23:33:57.024Z,60.07
2023-02-21T23:36:25.010Z,60.05
2023-02-21T23:38:53.625Z,60.09
2023-02-21T23:41:22.667Z,60.01
2023-02-21T23:43:50.676Z,60.03
2023-02-21T23:46:24.183Z,59.88
2023-02-21T23:48:52.438Z,60.03
2023-02-21T23:51:20.871Z,60.06
2023-02-21T23:53:49.152Z,60.09
2023-02-21T23:56:17.292Z,59.96
2023-02-21T23:58:45.941Z,60.06
